createdAt,value
2022-12-20T00:00:51.757Z,15.63
2022-12-20T00:03:18.432Z,13.77
2022-12-20T00:05:45.039Z,13.87
2022-12-20T00:08:11.903Z,13.77
2022-12-20T00:10:39.913Z,14.67
2022-12-20T00:13:06.902Z,16.00
2022-12-20T00:15:33.529Z,14.73
2022-12-20T00:18:00.476Z,14.23
2022-12-20T00:20:27.997Z,14.47
2022-12-20T00:22:54.700Z,15.87
2022-12-20T00:25:21.852Z,14.20
2022-12-20T00:27:49.008Z,12.73
2022-12-20T00:30:15.890Z,16.07
2022-12-20T00:32:42.413Z,14.13
2022-12-20T00:35:09.122Z,13.30
2022-12-20T00:37:35.638Z,14.30
2022-12-20T00:40:02.232Z,15.17
2022-12-20T00:42:28.753Z,16.57
2022-12-20T00:44:55.192Z,13.10
2022-12-20T00:47:21.843Z,12.57
2022-12-20T00:49:48.304Z,14.07
2022-12-20T00:52:14.746Z,14.60
2022-12-20T00:54:41.242Z,11.40
2022-12-20T00:57:07.673Z,14.17
2022-12-20T00:59:34.259Z,13.03
2022-12-20T01:02:00.855Z,11.83
2022-12-20T01:04:27.544Z,11.80
2022-12-20T01:06:53.983Z,12.10
2022-12-20T01:09:20.465Z,13.10
2022-12-20T01:11:46.901Z,13.87
2022-12-20T01:14:15.292Z,12.13
2022-12-20T01:16:44.898Z,14.30
2022-12-20T01:19:15.366Z,11.57
2022-12-20T01:21:44.713Z,12.67
2022-12-20T01:24:12.625Z,12.73
2022-12-20T01:26:39.288Z,12.43
2022-12-20T01:29:05.875Z,14.60
2022-12-20T01:31:32.753Z,11.57
2022-12-20T01:33:59.693Z,12.13
2022-12-20T01:36:29.402Z,12.93
2022-12-20T01:39:01.679Z,12.30
2022-12-20T01:41:29.054Z,13.00
2022-12-20T01:43:58.584Z,11.20
2022-12-20T01:46:27.836Z,10.67
2022-12-20T01:49:00.433Z,12.10
2022-12-20T01:51:27.737Z,10.97
2022-12-20T01:53:58.733Z,10.87
2022-12-20T01:56:25.269Z,11.77
2022-12-20T01:58:52.920Z,11.03
2022-12-20T02:01:19.488Z,12.77
2022-12-20T02:03:46.624Z,12.63
2022-12-20T02:06:22.097Z,12.80
2022-12-20T02:08:49.858Z,11.47
2022-12-20T02:11:31.518Z,11.87
2022-12-20T02:14:19.283Z,13.50
2022-12-20T02:16:53.824Z,12.53
2022-12-20T02:19:58.025Z,11.37
2022-12-20T02:22:24.474Z,11.50
2022-12-20T02:25:17.085Z,13.43
2022-12-20T02:27:57.244Z,12.00
2022-12-20T02:30:28.097Z,12.30
2022-12-20T02:33:01.067Z,13.70
2022-12-20T02:35:31.751Z,13.30
2022-12-20T02:38:00.897Z,12.57
2022-12-20T02:40:39.883Z,12.67
2022-12-20T02:43:29.163Z,12.30
2022-12-20T02:45:57.566Z,11.67
2022-12-20T02:48:25.938Z,16.83
2022-12-20T02:50:54.154Z,16.13
2022-12-20T02:53:21.488Z,16.10
2022-12-20T02:55:54.837Z,18.60
2022-12-20T02:58:43.104Z,15.57
2022-12-20T03:01:17.877Z,14.10
2022-12-20T03:03:44.699Z,16.30
2022-12-20T03:06:11.215Z,15.87
2022-12-20T03:08:37.684Z,17.77
2022-12-20T03:11:04.234Z,23.97
2022-12-20T03:13:30.715Z,21.90
2022-12-20T03:15:57.231Z,24.20
2022-12-20T03:18:23.690Z,28.93
2022-12-20T03:20:50.144Z,33.03
2022-12-20T03:23:16.622Z,37.53
2022-12-20T03:25:43.119Z,44.27
2022-12-20T03:28:09.576Z,39.17
2022-12-20T03:30:36.518Z,41.13
2022-12-20T03:33:03.012Z,28.03
2022-12-20T03:35:29.544Z,32.00
2022-12-20T03:37:56.458Z,36.80
2022-12-20T03:40:23.279Z,34.63
2022-12-20T03:42:49.804Z,37.83
2022-12-20T03:45:16.390Z,33.13
2022-12-20T03:47:42.968Z,37.43
2022-12-20T03:50:09.817Z,29.90
2022-12-20T03:52:36.316Z,37.73
2022-12-20T03:55:03.471Z,36.40
2022-12-20T03:57:29.948Z,42.43
2022-12-20T03:59:56.438Z,27.93
2022-12-20T04:02:23.115Z,22.10
2022-12-20T04:04:49.931Z,23.60
2022-12-20T04:07:16.463Z,18.47
2022-12-20T04:09:42.921Z,19.60
2022-12-20T04:12:09.448Z,28.30
2022-12-20T04:14:37.365Z,22.20
2022-12-20T04:17:04.333Z,24.83
2022-12-20T04:19:30.830Z,24.73
2022-12-20T04:22:04.641Z,25.53
2022-12-20T04:24:32.329Z,19.10
2022-12-20T04:26:58.803Z,31.60
2022-12-20T04:29:25.300Z,31.20
2022-12-20T04:31:51.836Z,28.00
2022-12-20T04:34:18.417Z,26.80
2022-12-20T04:36:44.899Z,29.60
2022-12-20T04:39:11.372Z,36.80
2022-12-20T04:41:37.882Z,29.63
2022-12-20T04:44:04.441Z,26.27
2022-12-20T04:46:30.958Z,24.13
2022-12-20T04:48:59.290Z,24.87
2022-12-20T04:51:27.208Z,22.80
2022-12-20T04:53:54.101Z,33.63
2022-12-20T04:56:20.524Z,33.63
2022-12-20T04:58:48.325Z,28.23
2022-12-20T05:01:15.229Z,24.00
2022-12-20T05:03:42.045Z,29.27
2022-12-20T05:06:08.935Z,22.57
2022-12-20T05:08:35.540Z,29.27
2022-12-20T05:11:02.301Z,26.93
2022-12-20T05:13:28.847Z,32.30
2022-12-20T05:15:56.310Z,26.50
2022-12-20T05:18:23.609Z,43.40
2022-12-20T05:21:10.075Z,33.63
2022-12-20T05:23:55.843Z,43.37
2022-12-20T05:26:24.658Z,30.40
2022-12-20T05:28:52.759Z,36.93
2022-12-20T05:31:19.296Z,27.10
2022-12-20T05:33:45.845Z,32.83
2022-12-20T05:36:12.333Z,25.17
2022-12-20T05:38:38.901Z,23.90
2022-12-20T05:41:06.726Z,16.57
2022-12-20T05:43:33.548Z,14.10
2022-12-20T05:46:00.399Z,21.27
2022-12-20T05:48:27.058Z,21.30
2022-12-20T05:50:53.530Z,19.23
2022-12-20T05:53:20.124Z,18.20
2022-12-20T05:55:51.698Z,13.50
2022-12-20T05:58:18.464Z,17.53
2022-12-20T06:00:45.488Z,16.73
2022-12-20T06:03:12.300Z,18.87
2022-12-20T06:05:39.711Z,21.77
2022-12-20T06:08:07.325Z,20.00
2022-12-20T06:10:37.620Z,20.67
2022-12-20T06:13:04.613Z,18.37
2022-12-20T06:15:31.411Z,22.53
2022-12-20T06:17:58.088Z,19.83
2022-12-20T06:20:24.823Z,18.67
2022-12-20T06:22:52.628Z,20.33
2022-12-20T06:25:19.297Z,20.20
2022-12-20T06:27:45.786Z,25.80
2022-12-20T06:30:13.155Z,30.13
2022-12-20T06:32:39.648Z,27.60
2022-12-20T06:35:06.694Z,33.73
2022-12-20T06:37:33.272Z,17.83
2022-12-20T06:40:00.296Z,17.63
2022-12-20T06:42:26.808Z,13.13
2022-12-20T06:44:53.261Z,14.10
2022-12-20T06:47:19.809Z,16.97
2022-12-20T06:49:46.246Z,16.37
2022-12-20T06:52:12.784Z,22.40
2022-12-20T06:54:39.236Z,21.03
2022-12-20T06:57:06.926Z,29.93
2022-12-20T06:59:33.568Z,22.90
2022-12-20T07:02:00.273Z,34.50
2022-12-20T07:04:27.042Z,31.40
2022-12-20T07:06:53.582Z,39.33
2022-12-20T07:09:20.037Z,26.93
2022-12-20T07:11:46.459Z,20.33
2022-12-20T07:14:12.981Z,26.83
2022-12-20T07:16:42.729Z,21.80
2022-12-20T07:19:14.251Z,22.30
2022-12-20T07:21:40.793Z,26.53
2022-12-20T07:24:08.092Z,19.90
2022-12-20T07:26:34.681Z,22.37
2022-12-20T07:29:01.890Z,19.53
2022-12-20T07:31:28.411Z,18.97
2022-12-20T07:33:54.914Z,17.73
2022-12-20T07:36:21.389Z,12.80
2022-12-20T07:38:49.081Z,11.67
2022-12-20T07:41:18.097Z,14.97
2022-12-20T07:43:44.708Z,16.57
2022-12-20T07:46:13.169Z,18.90
2022-12-20T07:48:39.821Z,15.80
2022-12-20T07:51:08.659Z,16.03
2022-12-20T07:53:38.292Z,15.70
2022-12-20T07:56:05.640Z,13.73
2022-12-20T07:58:35.063Z,13.83
2022-12-20T08:01:01.801Z,17.23
2022-12-20T08:03:32.058Z,14.33
2022-12-20T08:06:00.990Z,18.33
2022-12-20T08:08:27.606Z,14.20
2022-12-20T08:10:54.104Z,14.07
2022-12-20T08:13:20.598Z,18.53
2022-12-20T08:15:47.089Z,14.67
2022-12-20T08:18:13.580Z,19.67
2022-12-20T08:20:40.039Z,20.23
2022-12-20T08:23:06.977Z,16.97
2022-12-20T08:25:41.192Z,24.00
2022-12-20T08:28:08.122Z,18.83
2022-12-20T08:30:34.624Z,22.97
2022-12-20T08:33:01.157Z,17.40
2022-12-20T08:35:27.627Z,17.03
2022-12-20T08:37:54.133Z,28.53
2022-12-20T08:40:20.773Z,23.03
2022-12-20T08:42:47.375Z,24.17
2022-12-20T08:45:13.877Z,28.30
2022-12-20T08:47:40.569Z,37.27
2022-12-20T08:50:07.658Z,29.43
2022-12-20T08:52:34.176Z,31.53
2022-12-20T08:55:01.911Z,37.60
2022-12-20T08:57:28.799Z,33.63
2022-12-20T08:59:55.261Z,23.40
2022-12-20T09:02:21.996Z,20.97
2022-12-20T09:04:48.773Z,13.40
2022-12-20T09:07:15.212Z,14.67
2022-12-20T09:09:41.705Z,13.17
2022-12-20T09:12:08.153Z,14.70
2022-12-20T09:14:34.700Z,13.30
2022-12-20T09:17:01.173Z,15.53
2022-12-20T09:19:29.547Z,13.40
2022-12-20T09:21:56.209Z,14.40
2022-12-20T09:24:22.756Z,14.77
2022-12-20T09:26:50.314Z,11.97
2022-12-20T09:29:25.812Z,10.50
2022-12-20T09:31:53.671Z,9.73
2022-12-20T09:34:20.152Z,11.70
2022-12-20T09:36:46.622Z,12.43
2022-12-20T09:39:13.128Z,13.73
2022-12-20T09:41:41.418Z,14.30
2022-12-20T09:44:17.050Z,10.97
2022-12-20T09:46:44.459Z,11.73
2022-12-20T09:49:16.220Z,11.80
2022-12-20T09:51:54.747Z,12.07
2022-12-20T09:54:27.290Z,12.67
2022-12-20T09:57:04.500Z,9.33
2022-12-20T09:59:39.547Z,16.63
2022-12-20T10:02:43.578Z,15.93
2022-12-20T10:04:58.901Z,11.80
2022-12-20T10:07:37.872Z,16.47
2022-12-20T10:10:21.954Z,17.10
2022-12-20T10:13:00.874Z,17.87
2022-12-20T10:15:35.219Z,21.10
2022-12-20T10:18:01.704Z,22.47
2022-12-20T10:20:39.795Z,17.30
2022-12-20T10:23:17.782Z,21.10
2022-12-20T10:25:46.149Z,36.33
2022-12-20T10:28:15.475Z,30.10
2022-12-20T10:30:42.746Z,34.23
2022-12-20T10:33:21.737Z,40.10
2022-12-20T10:35:50.671Z,31.13
2022-12-20T10:38:21.008Z,33.63
2022-12-20T10:41:21.120Z,33.93
2022-12-20T10:43:52.848Z,42.93
2022-12-20T10:46:19.485Z,39.47
2022-12-20T10:48:48.479Z,37.33
2022-12-20T10:51:25.330Z,42.20
2022-12-20T10:53:54.909Z,40.13
2022-12-20T10:56:32.836Z,35.47
2022-12-20T10:59:23.688Z,26.87
2022-12-20T11:01:50.780Z,16.30
2022-12-20T11:04:32.259Z,15.97
2022-12-20T11:07:01.047Z,15.23
2022-12-20T11:09:36.065Z,14.00
2022-12-20T11:12:05.655Z,17.20
2022-12-20T11:14:39.145Z,14.57
2022-12-20T11:17:35.568Z,17.07
2022-12-20T11:20:08.195Z,25.40
2022-12-20T11:23:05.556Z,26.97
2022-12-20T11:25:50.804Z,39.43
2022-12-20T11:28:36.439Z,40.03
2022-12-20T11:31:06.021Z,35.17
2022-12-20T11:33:47.560Z,26.50
2022-12-20T11:36:37.188Z,21.07
2022-12-20T11:39:36.191Z,20.40
2022-12-20T11:42:14.704Z,26.37
2022-12-20T11:45:03.545Z,29.93
2022-12-20T11:47:55.916Z,25.17
2022-12-20T11:50:31.527Z,22.00
2022-12-20T11:53:00.678Z,17.57
2022-12-20T11:55:41.938Z,22.03
2022-12-20T11:58:26.321Z,18.97
2022-12-20T12:00:58.288Z,18.70
2022-12-20T12:03:29.135Z,21.77
2022-12-20T12:06:29.392Z,27.30
2022-12-20T12:09:11.940Z,28.30
2022-12-20T12:15:17.446Z,29.03
2022-12-20T12:18:11.823Z,30.40
2022-12-20T12:20:56.624Z,24.60
2022-12-20T12:23:29.840Z,20.60
2022-12-20T12:25:58.444Z,23.30
2022-12-20T12:28:24.975Z,20.93
2022-12-20T12:31:04.092Z,25.00
2022-12-20T12:33:50.826Z,21.97
2022-12-20T12:36:45.203Z,19.43
2022-12-20T12:39:31.882Z,32.73
2022-12-20T12:42:35.316Z,23.60
2022-12-20T12:45:09.977Z,20.10
2022-12-20T12:47:40.398Z,24.93
2022-12-20T12:50:14.949Z,25.37
2022-12-20T12:52:46.180Z,18.00
2022-12-20T12:55:50.600Z,16.90
2022-12-20T12:58:24.171Z,22.57
2022-12-20T13:00:58.256Z,14.40
2022-12-20T13:03:48.476Z,13.97
2022-12-20T13:06:25.250Z,13.73
2022-12-20T13:09:00.731Z,13.67
2022-12-20T13:11:34.007Z,8.83
2022-12-20T13:14:24.822Z,11.27
2022-12-20T13:17:13.106Z,9.67
2022-12-20T13:19:52.103Z,9.57
2022-12-20T13:22:23.860Z,13.23
2022-12-20T13:25:04.019Z,9.23
2022-12-20T13:27:33.189Z,14.43
2022-12-20T13:30:11.983Z,10.97
2022-12-20T13:32:47.887Z,14.93
2022-12-20T13:35:26.694Z,10.10
2022-12-20T13:38:06.317Z,12.03
2022-12-20T13:40:35.425Z,10.53
2022-12-20T13:43:20.303Z,11.77
2022-12-20T13:45:51.811Z,8.60
2022-12-20T13:48:23.134Z,10.23
2022-12-20T13:50:52.931Z,8.50
2022-12-20T13:53:22.228Z,7.57
2022-12-20T13:55:49.708Z,8.13
2022-12-20T13:58:19.056Z,11.63
2022-12-20T14:00:47.630Z,9.37
2022-12-20T14:03:19.946Z,8.67
2022-12-20T14:05:46.584Z,10.93
2022-12-20T14:08:25.210Z,10.13
2022-12-20T14:10:52.803Z,10.30
2022-12-20T14:13:24.477Z,9.77
2022-12-20T14:15:51.995Z,13.10
2022-12-20T14:18:24.766Z,11.37
2022-12-20T14:20:58.410Z,10.80
2022-12-20T14:23:45.856Z,10.23
2022-12-20T14:26:17.332Z,14.73
2022-12-20T14:28:47.217Z,11.57
2022-12-20T14:31:33.705Z,15.93
2022-12-20T14:34:11.801Z,9.10
2022-12-20T14:36:40.053Z,10.33
2022-12-20T14:39:27.622Z,11.70
2022-12-20T14:42:09.854Z,12.60
2022-12-20T14:44:36.420Z,14.30
2022-12-20T14:47:17.108Z,10.50
2022-12-20T14:49:54.094Z,12.30
2022-12-20T14:52:25.374Z,11.53
2022-12-20T14:55:11.068Z,11.47
2022-12-20T14:57:39.344Z,14.83
2022-12-20T15:00:14.025Z,16.13
2022-12-20T15:02:55.918Z,17.40
2022-12-20T15:05:34.954Z,17.77
2022-12-20T15:08:19.598Z,11.10
2022-12-20T15:10:59.969Z,11.17
2022-12-20T15:13:36.732Z,11.63
2022-12-20T15:16:14.591Z,11.97
2022-12-20T15:18:41.409Z,13.20
2022-12-20T15:21:15.236Z,11.60
2022-12-20T15:23:48.235Z,12.17
2022-12-20T15:26:20.853Z,12.23
2022-12-20T15:28:47.546Z,16.87
2022-12-20T15:31:18.921Z,12.80
2022-12-20T15:33:46.221Z,13.27
2022-12-20T15:36:21.603Z,14.07
2022-12-20T15:39:11.325Z,13.30
2022-12-20T15:41:34.910Z,15.20
2022-12-20T15:44:05.857Z,16.03
2022-12-20T15:46:32.742Z,17.77
2022-12-20T15:48:59.428Z,15.30
2022-12-20T15:51:32.574Z,19.13
2022-12-20T15:54:00.692Z,20.03
2022-12-20T15:56:28.059Z,17.03
2022-12-20T15:58:54.716Z,18.33
2022-12-20T16:01:39.805Z,18.90
2022-12-20T16:04:08.093Z,20.37
2022-12-20T16:06:34.632Z,20.57
2022-12-20T16:09:01.280Z,20.07
2022-12-20T16:11:29.640Z,18.30
2022-12-20T16:13:57.617Z,21.13
2022-12-20T16:16:29.479Z,20.37
2022-12-20T16:18:56.364Z,21.67
2022-12-20T16:21:25.447Z,23.30
2022-12-20T16:23:52.238Z,22.23
2022-12-20T16:26:21.397Z,22.83
2022-12-20T16:28:49.325Z,22.70
2022-12-20T16:31:25.667Z,24.60
2022-12-20T16:33:52.842Z,21.10
2022-12-20T16:36:19.411Z,25.70
2022-12-20T16:38:46.217Z,24.27
2022-12-20T16:41:15.411Z,24.53
2022-12-20T16:43:42.553Z,28.60
2022-12-20T16:46:13.898Z,28.07
2022-12-20T16:48:41.734Z,23.00
2022-12-20T16:51:33.537Z,30.10
2022-12-20T16:54:21.377Z,26.10
2022-12-20T16:56:51.948Z,30.63
2022-12-20T16:59:21.243Z,30.10
2022-12-20T17:01:49.356Z,27.50
2022-12-20T17:04:17.604Z,29.20
2022-12-20T17:06:44.887Z,32.17
2022-12-20T17:11:58.860Z,26.03
2022-12-20T17:14:25.323Z,24.53
2022-12-20T17:16:51.850Z,27.37
2022-12-20T17:19:18.330Z,25.83
2022-12-20T17:24:31.394Z,27.53
2022-12-20T17:26:57.941Z,30.03
2022-12-20T17:29:26.225Z,29.93
2022-12-20T17:31:57.047Z,32.60
2022-12-20T17:34:28.056Z,34.77
2022-12-20T17:36:56.625Z,33.73
2022-12-20T17:39:24.903Z,35.63
2022-12-20T17:41:53.128Z,36.83
2022-12-20T17:44:25.531Z,32.47
2022-12-20T17:46:54.605Z,37.87
2022-12-20T17:49:23.025Z,37.63
2022-12-20T17:51:51.588Z,36.07
2022-12-20T17:54:20.418Z,36.03
2022-12-20T17:56:47.801Z,41.57
2022-12-20T17:59:15.158Z,40.87
2022-12-20T18:01:43.195Z,42.20
2022-12-20T18:04:12.499Z,45.23
2022-12-20T18:06:40.416Z,43.23
2022-12-20T18:09:12.183Z,46.73
2022-12-20T18:11:38.798Z,46.43
2022-12-20T18:14:05.280Z,46.63
2022-12-20T18:16:35.042Z,47.47
2022-12-20T18:19:02.332Z,52.83
2022-12-20T18:21:29.151Z,52.87
2022-12-20T18:23:56.134Z,49.90
2022-12-20T18:26:30.644Z,57.80
2022-12-20T18:29:01.261Z,53.57
2022-12-20T18:31:29.791Z,57.77
2022-12-20T18:33:58.430Z,61.13
2022-12-20T18:36:27.821Z,57.87
2022-12-20T18:38:54.414Z,62.17
2022-12-20T18:41:26.381Z,83.20
2022-12-20T18:43:53.922Z,73.97
2022-12-20T18:46:22.356Z,72.63
2022-12-20T18:48:53.792Z,69.90
2022-12-20T18:51:22.665Z,82.33
2022-12-20T18:53:50.442Z,78.07
2022-12-20T18:56:19.902Z,88.57
2022-12-20T18:58:47.468Z,71.53
2022-12-20T19:01:26.030Z,77.90
2022-12-20T19:03:53.323Z,78.57
2022-12-20T19:06:20.484Z,65.00
2022-12-20T19:08:47.481Z,69.13
2022-12-20T19:11:17.014Z,75.23
2022-12-20T19:13:43.835Z,67.73
2022-12-20T19:16:13.088Z,67.50
2022-12-20T19:18:40.523Z,67.73
2022-12-20T19:21:10.838Z,67.53
2022-12-20T19:23:38.540Z,68.20
2022-12-20T19:26:07.487Z,73.53
2022-12-20T19:28:34.575Z,75.50
2022-12-20T19:31:21.710Z,94.80
2022-12-20T19:33:49.870Z,77.07
2022-12-20T19:36:19.614Z,77.90
2022-12-20T19:38:48.507Z,85.47
2022-12-20T19:41:16.091Z,78.70
2022-12-20T19:43:43.556Z,79.97
2022-12-20T19:46:13.984Z,89.13
2022-12-20T19:48:42.147Z,95.13
2022-12-20T19:51:11.781Z,90.57
2022-12-20T19:53:39.752Z,102.70
2022-12-20T19:56:08.727Z,98.93
2022-12-20T19:58:36.056Z,82.23
2022-12-20T20:01:05.054Z,108.20
2022-12-20T20:03:32.608Z,87.97
2022-12-20T20:05:59.307Z,99.53
2022-12-20T20:08:25.887Z,90.77
2022-12-20T20:10:54.153Z,91.70
2022-12-20T20:13:20.759Z,77.23
2022-12-20T20:15:51.623Z,95.47
2022-12-20T20:18:18.249Z,90.43
2022-12-20T20:20:44.820Z,102.93
2022-12-20T20:23:11.336Z,114.63
2022-12-20T20:25:37.996Z,81.03
2022-12-20T20:28:04.893Z,107.50
2022-12-20T20:30:31.368Z,103.07
2022-12-20T20:32:57.905Z,110.60
2022-12-20T20:35:24.390Z,101.27
2022-12-20T20:37:51.844Z,102.47
2022-12-20T20:40:18.302Z,114.30
2022-12-20T20:42:44.750Z,129.30
2022-12-20T20:45:11.470Z,86.23
2022-12-20T20:47:37.979Z,113.30
2022-12-20T20:50:05.105Z,101.53
2022-12-20T20:52:31.532Z,101.57
2022-12-20T20:54:58.771Z,108.37
2022-12-20T20:57:25.354Z,93.77
2022-12-20T20:59:51.967Z,112.17
2022-12-20T21:02:20.951Z,88.80
2022-12-20T21:05:14.415Z,120.13
2022-12-20T21:07:34.149Z,100.53
2022-12-20T21:10:00.621Z,123.40
2022-12-20T21:12:27.124Z,108.27
2022-12-20T21:15:21.322Z,126.27
2022-12-20T21:17:40.370Z,115.80
2022-12-20T21:20:07.517Z,131.70
2022-12-20T21:22:34.007Z,113.53
2022-12-20T21:25:00.543Z,117.67
2022-12-20T21:27:26.982Z,123.67
2022-12-20T21:29:53.460Z,99.83
2022-12-20T21:32:19.926Z,118.97
2022-12-20T21:34:46.369Z,115.23
2022-12-20T21:37:12.960Z,149.60
2022-12-20T21:39:39.422Z,128.57
2022-12-20T21:42:05.911Z,148.00
2022-12-20T21:44:32.399Z,146.60
2022-12-20T21:46:58.976Z,154.00
2022-12-20T21:49:25.482Z,160.77
2022-12-20T21:51:56.419Z,186.07
2022-12-20T21:54:23.673Z,153.70
2022-12-20T21:56:51.287Z,156.47
2022-12-20T21:59:18.501Z,119.87
2022-12-20T22:01:48.133Z,109.53
2022-12-20T22:04:15.593Z,138.63
2022-12-20T22:06:43.203Z,167.03
2022-12-20T22:09:10.256Z,123.47
2022-12-20T22:11:37.131Z,151.00
2022-12-20T22:14:03.742Z,131.10
2022-12-20T22:16:32.287Z,120.10
2022-12-20T22:18:59.590Z,95.50
2022-12-20T22:21:28.139Z,81.57
2022-12-20T22:23:56.256Z,66.27
2022-12-20T22:26:25.160Z,51.13
2022-12-20T22:28:54.521Z,71.57
2022-12-20T22:31:23.376Z,53.30
2022-12-20T22:33:54.088Z,68.90
2022-12-20T22:36:20.864Z,60.77
2022-12-20T22:38:50.187Z,78.33
2022-12-20T22:41:20.045Z,73.97
2022-12-20T22:43:47.346Z,73.43
2022-12-20T22:46:15.500Z,76.37
2022-12-20T22:48:43.544Z,68.50
2022-12-20T22:51:16.071Z,68.50
2022-12-20T22:53:43.304Z,71.70
2022-12-20T22:56:13.632Z,80.43
2022-12-20T22:58:41.351Z,78.57
2022-12-20T23:01:10.638Z,65.00
2022-12-20T23:03:37.394Z,111.67
2022-12-20T23:06:06.035Z,103.23
2022-12-20T23:08:35.295Z,96.67
2022-12-20T23:11:20.613Z,107.63
2022-12-20T23:14:05.890Z,81.67
2022-12-20T23:16:32.578Z,81.00
2022-12-20T23:19:01.858Z,95.43
2022-12-20T23:21:48.255Z,100.10
2022-12-20T23:24:15.289Z,126.50
2022-12-20T23:26:42.690Z,90.20
2022-12-20T23:29:10.103Z,92.93
2022-12-20T23:31:36.707Z,91.13
2022-12-20T23:34:03.514Z,81.17
2022-12-20T23:36:30.463Z,85.37
2022-12-20T23:38:56.943Z,90.77
2022-12-20T23:41:23.716Z,92.23
2022-12-20T23:43:50.284Z,125.27
2022-12-20T23:46:18.548Z,90.60
2022-12-20T23:48:45.183Z,111.63
2022-12-20T23:51:11.711Z,88.33
2022-12-20T23:53:38.407Z,89.20
2022-12-20T23:56:13.151Z,110.43
2022-12-20T23:58:39.872Z,77.00
